Terminal Aerodrome Forecast
Issued by NWS

Home | Current Version | Previous Version | Graphics & Text | Print | Product List | Glossary On
Versions: 1 2 3 4 5 6 7 8 9 10 11 12
117
FTUS45 KGGW 161123
TAFSDY
TAF
KSDY 161123Z 1612/1712 20006KT P6SM SKC
     FM161600 24006KT P6SM FEW200
     FM170100 20010KT P6SM FEW200=

USA.gov is the U.S. government's official web portal to all federal, state and local government web resources and services.